Time;durP1;ratioP1;P1;durP2;ratioP2;P2;SDS_P1;SDS_P2;PMS_P1;PMS_P2;Temp;Humidity;BMP_temperature;BMP_pressure;BME280_temperature;BME280_humidity;BME280_pressure;Samples;Min_cycle;Max_cycle;Signal;HPM_P1;HPM_P2
2023/12/09 00:00:45;;;;;;;51.30;23.92;;;3.90;99.90;;;;;;5033815;28;20031;-46
2023/12/09 00:03:10;;;;;;;53.00;23.52;;;3.90;99.90;;;;;;5041308;28;20090;-44
2023/12/09 00:05:36;;;;;;;51.42;26.00;;;4.00;99.90;;;;;;5034081;28;20401;-47
2023/12/09 00:08:02;;;;;;;47.80;22.55;;;4.00;99.90;;;;;;5041049;28;20021;-46
2023/12/09 00:10:28;;;;;;;46.95;22.83;;;3.90;99.90;;;;;;5037505;28;20079;-46
2023/12/09 00:12:54;;;;;;;49.38;23.70;;;4.00;99.90;;;;;;5054952;28;20491;-45
2023/12/09 00:15:20;;;;;;;44.20;22.80;;;4.00;99.90;;;;;;5040056;28;20071;-46
2023/12/09 00:17:46;;;;;;;48.97;24.27;;;4.00;99.90;;;;;;5039149;28;20029;-45
2023/12/09 00:20:12;;;;;;;44.35;22.13;;;4.00;99.90;;;;;;5041026;28;20020;-48
2023/12/09 00:22:38;;;;;;;47.15;22.27;;;4.00;99.90;;;;;;5038523;28;20022;-48
2023/12/09 00:25:06;;;;;;;41.00;22.25;;;4.00;99.90;;;;;;5041631;28;20021;-44
2023/12/09 00:27:31;;;;;;;43.22;21.23;;;4.00;99.90;;;;;;5033949;28;20029;-46
2023/12/09 00:29:57;;;;;;;52.22;24.63;;;4.00;99.90;;;;;;5055744;28;20032;-47
2023/12/09 00:32:22;;;;;;;46.60;21.60;;;4.10;99.90;;;;;;5040251;28;20479;-43
2023/12/09 00:34:48;;;;;;;52.53;25.02;;;4.10;99.90;;;;;;5039432;28;20064;-44
2023/12/09 00:37:13;;;;;;;44.67;22.45;;;4.00;99.90;;;;;;5041149;28;20390;-48
2023/12/09 00:39:39;;;;;;;44.90;21.67;;;4.10;99.90;;;;;;5037959;28;20463;-47
2023/12/09 00:42:05;;;;;;;55.15;23.73;;;4.10;99.90;;;;;;5041746;28;20025;-45
2023/12/09 00:44:30;;;;;;;48.03;22.75;;;4.10;99.90;;;;;;5039164;28;20094;-47
2023/12/09 00:46:56;;;;;;;49.03;22.63;;;4.10;99.90;;;;;;5056017;28;20497;-47
2023/12/09 00:49:21;;;;;;;51.13;22.60;;;4.20;99.90;;;;;;5040432;28;20316;-46
2023/12/09 00:51:47;;;;;;;42.60;21.95;;;4.10;99.90;;;;;;5039577;28;20033;-47
2023/12/09 00:54:13;;;;;;;44.25;21.83;;;4.20;99.90;;;;;;5041678;28;20155;-45
2023/12/09 00:56:38;;;;;;;47.22;22.88;;;4.20;99.90;;;;;;5038308;28;20029;-44
2023/12/09 00:59:05;;;;;;;41.80;24.75;;;4.20;99.90;;;;;;5039801;28;20016;-46
2023/12/09 01:01:30;;;;;;;39.17;21.13;;;4.20;99.90;;;;;;5043778;28;20021;-45
2023/12/09 01:03:56;;;;;;;44.75;21.55;;;4.20;99.90;;;;;;5044767;28;20478;-46
2023/12/09 01:06:21;;;;;;;38.03;19.77;;;4.20;99.90;;;;;;5044608;28;20136;-46
2023/12/09 01:08:47;;;;;;;43.67;21.67;;;4.20;99.90;;;;;;5043381;28;20036;-46
2023/12/09 01:11:13;;;;;;;43.35;22.38;;;4.20;99.90;;;;;;5045845;28;20025;-47
2023/12/09 01:13:38;;;;;;;47.75;21.52;;;4.20;99.90;;;;;;5041269;28;20544;-46
2023/12/09 01:16:04;;;;;;;45.67;22.60;;;4.20;99.90;;;;;;5045901;28;20049;-46
2023/12/09 01:18:30;;;;;;;47.88;23.02;;;4.30;99.90;;;;;;5038586;28;20064;-46
2023/12/09 01:20:55;;;;;;;55.08;24.65;;;4.20;99.90;;;;;;5045169;28;20045;-45
2023/12/09 01:23:21;;;;;;;41.35;22.08;;;4.20;99.90;;;;;;5028027;28;20113;-45
2023/12/09 01:25:47;;;;;;;44.17;20.58;;;4.20;99.90;;;;;;5032853;28;20025;-46
2023/12/09 01:28:12;;;;;;;54.83;24.17;;;4.20;99.90;;;;;;5026030;28;20467;-47
2023/12/09 01:30:38;;;;;;;55.38;24.13;;;4.30;99.90;;;;;;5032486;28;20120;-46
2023/12/09 01:33:03;;;;;;;46.13;21.08;;;4.30;99.90;;;;;;5031482;28;20047;-45
2023/12/09 01:35:29;;;;;;;52.17;25.48;;;4.30;99.90;;;;;;5033562;28;20275;-48
2023/12/09 01:37:54;;;;;;;43.15;22.42;;;4.20;99.90;;;;;;5036064;28;20071;-48
2023/12/09 01:40:21;;;;;;;55.83;25.80;;;4.20;99.90;;;;;;5033748;28;20490;-46
2023/12/09 01:42:46;;;;;;;41.83;21.65;;;4.20;99.90;;;;;;5033749;28;20021;-47
2023/12/09 01:45:12;;;;;;;37.55;19.17;;;4.20;99.90;;;;;;5033795;28;20029;-47
2023/12/09 01:47:38;;;;;;;46.88;21.48;;;4.20;99.90;;;;;;5033167;28;20025;-46
2023/12/09 01:50:06;;;;;;;45.97;20.90;;;4.10;99.90;;;;;;5030837;28;20537;-48
2023/12/09 01:52:32;;;;;;;45.58;22.33;;;4.10;99.90;;;;;;5033785;28;20025;-47
2023/12/09 01:54:59;;;;;;;50.70;23.52;;;4.10;99.90;;;;;;5031947;28;20048;-46
2023/12/09 01:57:25;;;;;;;47.78;23.30;;;4.00;99.90;;;;;;5027999;28;20083;-44
2023/12/09 01:59:51;;;;;;;47.25;22.27;;;4.00;99.90;;;;;;5033127;28;20025;-47
2023/12/09 02:02:17;;;;;;;43.97;20.73;;;4.00;99.90;;;;;;5032255;28;20021;-46
2023/12/09 02:04:42;;;;;;;53.13;23.92;;;4.00;99.90;;;;;;5032983;28;20017;-45
2023/12/09 02:07:08;;;;;;;43.28;22.02;;;3.90;99.90;;;;;;5035425;28;20032;-45
2023/12/09 02:09:37;;;;;;;47.83;24.10;;;3.90;99.90;;;;;;5043505;28;20021;-44
2023/12/09 02:12:10;;;;;;;43.17;20.08;;;3.90;99.90;;;;;;5045564;28;20121;-48
2023/12/09 02:14:50;;;;;;;43.85;22.08;;;3.90;99.90;;;;;;5043643;28;20056;-46
2023/12/09 02:17:20;;;;;;;41.50;20.37;;;3.90;99.90;;;;;;5037858;28;20098;-47
2023/12/09 02:19:46;;;;;;;47.10;21.35;;;3.90;99.90;;;;;;5043274;28;20661;-44
2023/12/09 02:22:12;;;;;;;42.47;19.88;;;3.90;99.90;;;;;;5045923;28;20049;-46
2023/12/09 02:24:38;;;;;;;43.22;21.33;;;3.80;99.90;;;;;;5044057;28;20560;-46
2023/12/09 02:27:13;;;;;;;50.55;20.88;;;3.90;99.90;;;;;;5040542;28;20013;-45
2023/12/09 02:30:04;;;;;;;44.97;20.95;;;3.90;99.90;;;;;;5043519;28;20053;-44
2023/12/09 02:32:32;;;;;;;35.67;18.80;;;3.90;99.90;;;;;;5045329;28;20298;-45
2023/12/09 02:34:59;;;;;;;45.42;21.40;;;4.00;99.90;;;;;;5043943;28;20068;-45
2023/12/09 02:37:28;;;;;;;39.72;18.85;;;4.00;99.90;;;;;;5042867;28;20020;-45
2023/12/09 02:39:53;;;;;;;38.42;19.85;;;4.10;99.90;;;;;;5042850;28;20029;-45
2023/12/09 02:42:20;;;;;;;41.15;18.13;;;4.10;99.90;;;;;;5044744;28;20017;-45
2023/12/09 02:44:46;;;;;;;39.95;18.65;;;4.10;99.90;;;;;;5037511;28;20037;-48
2023/12/09 02:47:15;;;;;;;41.17;18.73;;;4.10;99.90;;;;;;5045754;28;20047;-45
2023/12/09 02:49:42;;;;;;;41.83;17.67;;;4.10;99.90;;;;;;5042407;28;20060;-44
2023/12/09 02:52:08;;;;;;;35.67;18.00;;;4.20;99.90;;;;;;5046371;28;20123;-44
2023/12/09 02:54:33;;;;;;;31.63;16.48;;;4.20;99.90;;;;;;5044016;28;20033;-49
2023/12/09 02:56:59;;;;;;;32.55;17.45;;;4.20;99.90;;;;;;5044998;28;20159;-45
2023/12/09 02:59:25;;;;;;;33.47;17.33;;;4.20;99.90;;;;;;5044064;28;20510;-44
2023/12/09 03:01:50;;;;;;;34.15;16.23;;;4.20;99.90;;;;;;5044489;28;20020;-46
2023/12/09 03:04:16;;;;;;;28.20;16.05;;;4.20;99.90;;;;;;5037157;28;20489;-45
2023/12/09 03:06:41;;;;;;;27.95;14.75;;;4.30;99.90;;;;;;5043619;28;20040;-44
2023/12/09 03:09:07;;;;;;;36.72;17.50;;;4.30;99.90;;;;;;5043875;28;20025;-47
2023/12/09 03:11:32;;;;;;;31.38;16.95;;;4.30;99.90;;;;;;5043321;28;20399;-48
2023/12/09 03:13:58;;;;;;;32.63;15.95;;;4.30;99.90;;;;;;5043594;28;20095;-47
2023/12/09 03:16:24;;;;;;;29.20;16.15;;;4.40;99.90;;;;;;5041414;28;20413;-45
2023/12/09 03:18:49;;;;;;;33.58;16.80;;;4.40;99.90;;;;;;5044022;28;20101;-46
2023/12/09 03:21:16;;;;;;;29.85;15.60;;;4.40;99.90;;;;;;5044063;28;20478;-44
2023/12/09 03:23:42;;;;;;;31.45;15.18;;;4.40;99.90;;;;;;5043603;28;20035;-48
2023/12/09 03:26:18;;;;;;;27.48;14.25;;;4.40;99.90;;;;;;5045943;28;20027;-46
2023/12/09 03:28:45;;;;;;;33.38;16.20;;;4.40;99.90;;;;;;5043980;28;20033;-46
2023/12/09 03:31:15;;;;;;;33.35;15.48;;;4.30;99.90;;;;;;5046144;28;20524;-45
2023/12/09 03:33:41;;;;;;;28.45;14.23;;;4.40;99.90;;;;;;5042883;28;20025;-46
2023/12/09 03:36:13;;;;;;;27.45;15.43;;;4.30;99.90;;;;;;5040494;28;20052;-46
2023/12/09 03:38:39;;;;;;;29.88;14.10;;;4.30;99.90;;;;;;5044584;28;20067;-46
2023/12/09 03:41:05;;;;;;;31.23;14.50;;;4.30;99.90;;;;;;5045885;28;20024;-49
2023/12/09 03:43:31;;;;;;;31.35;16.30;;;4.30;99.90;;;;;;5045353;28;20020;-44
2023/12/09 03:45:58;;;;;;;24.58;14.07;;;4.40;99.90;;;;;;5045081;28;20313;-46
2023/12/09 03:48:24;;;;;;;34.63;15.10;;;4.40;99.90;;;;;;5046077;28;20100;-48
2023/12/09 03:50:49;;;;;;;26.33;14.02;;;4.30;99.90;;;;;;5043851;28;20116;-48
2023/12/09 03:53:15;;;;;;;31.50;15.35;;;4.40;99.90;;;;;;5045943;28;20060;-45
2023/12/09 03:55:40;;;;;;;23.92;12.52;;;4.40;99.90;;;;;;5044376;28;20036;-48
2023/12/09 03:58:06;;;;;;;29.33;14.15;;;4.40;99.90;;;;;;5046105;28;20078;-48
2023/12/09 04:00:32;;;;;;;24.00;12.75;;;4.40;99.90;;;;;;5045389;28;20021;-46
2023/12/09 04:02:58;;;;;;;24.33;13.50;;;4.40;99.90;;;;;;5043855;28;20475;-44
2023/12/09 04:05:23;;;;;;;24.63;13.73;;;4.40;99.90;;;;;;5045685;28;20051;-44
2023/12/09 04:07:49;;;;;;;31.02;14.43;;;4.40;99.90;;;;;;5044359;28;20033;-48
2023/12/09 04:10:14;;;;;;;25.60;13.32;;;4.30;99.90;;;;;;5045493;28;20017;-45
2023/12/09 04:12:40;;;;;;;26.33;14.30;;;4.30;99.90;;;;;;5043148;28;20035;-45
2023/12/09 04:15:07;;;;;;;21.50;12.70;;;4.30;99.90;;;;;;5045832;28;20032;-47
2023/12/09 04:17:33;;;;;;;23.42;12.65;;;4.40;99.90;;;;;;5042325;28;20504;-45
2023/12/09 04:19:59;;;;;;;23.05;13.48;;;4.40;99.90;;;;;;5045005;28;20029;-46
2023/12/09 04:22:24;;;;;;;29.25;13.88;;;4.40;99.90;;;;;;5046144;28;20055;-44
2023/12/09 04:24:50;;;;;;;23.05;12.65;;;4.50;99.90;;;;;;5044849;28;20313;-45
2023/12/09 04:27:16;;;;;;;32.00;13.52;;;4.40;99.90;;;;;;5045841;28;20041;-45
2023/12/09 04:29:42;;;;;;;24.27;12.80;;;4.40;99.90;;;;;;5045000;28;20014;-46
2023/12/09 04:32:08;;;;;;;29.02;14.05;;;4.40;99.90;;;;;;5046175;28;20047;-46
2023/12/09 04:34:35;;;;;;;28.02;13.50;;;4.40;99.90;;;;;;5038406;28;20513;-45
2023/12/09 04:37:01;;;;;;;26.98;13.45;;;4.40;99.90;;;;;;5038865;28;20071;-45
2023/12/09 04:39:27;;;;;;;24.20;14.27;;;4.40;99.90;;;;;;5040715;28;20021;-44
2023/12/09 04:41:53;;;;;;;21.92;12.77;;;4.50;99.90;;;;;;5045250;28;20013;-46
2023/12/09 04:44:18;;;;;;;24.90;12.25;;;4.50;99.90;;;;;;5044960;28;20428;-44
2023/12/09 04:46:44;;;;;;;24.88;12.52;;;4.50;99.90;;;;;;5045645;28;20036;-47
2023/12/09 04:49:10;;;;;;;23.48;11.82;;;4.50;99.90;;;;;;5046055;28;20021;-46
2023/12/09 04:51:36;;;;;;;25.00;11.90;;;4.50;99.90;;;;;;5045727;28;20523;-46
2023/12/09 04:54:02;;;;;;;24.23;12.02;;;4.50;99.90;;;;;;5045817;28;20044;-47
2023/12/09 04:56:29;;;;;;;22.42;12.05;;;4.60;99.90;;;;;;5046074;28;20095;-45
2023/12/09 04:58:55;;;;;;;20.50;11.32;;;4.60;99.90;;;;;;5044980;28;20018;-48
2023/12/09 05:01:21;;;;;;;20.75;11.52;;;4.60;99.90;;;;;;5046038;28;20028;-45
2023/12/09 05:03:47;;;;;;;22.67;12.18;;;4.60;99.90;;;;;;5045423;28;20021;-46
2023/12/09 05:06:12;;;;;;;20.50;11.48;;;4.60;99.90;;;;;;5046310;28;20371;-46
2023/12/09 05:08:41;;;;;;;21.55;11.18;;;4.70;99.90;;;;;;5045693;28;20044;-48
2023/12/09 05:11:08;;;;;;;20.27;11.15;;;4.70;99.90;;;;;;5046164;28;20116;-45
2023/12/09 05:13:33;;;;;;;23.55;10.73;;;4.70;99.90;;;;;;5046294;28;20048;-45
2023/12/09 05:15:59;;;;;;;19.42;10.15;;;4.80;99.90;;;;;;5045880;28;20522;-47
2023/12/09 05:18:25;;;;;;;23.45;10.75;;;4.80;99.90;;;;;;5044813;28;20104;-44
2023/12/09 05:20:50;;;;;;;23.52;11.40;;;4.80;99.90;;;;;;5045514;28;20022;-48
2023/12/09 05:23:16;;;;;;;19.38;9.95;;;4.90;99.90;;;;;;5046810;28;20023;-44
2023/12/09 05:25:43;;;;;;;25.85;11.75;;;4.90;99.90;;;;;;5045807;28;20025;-45
2023/12/09 05:28:09;;;;;;;24.55;11.38;;;4.90;99.90;;;;;;5046945;28;20025;-48
2023/12/09 05:30:35;;;;;;;19.90;8.93;;;4.90;99.90;;;;;;5046142;28;20037;-45
2023/12/09 05:33:00;;;;;;;24.35;10.18;;;5.00;99.90;;;;;;5045978;28;20212;-49
2023/12/09 05:35:26;;;;;;;19.17;9.75;;;5.00;99.90;;;;;;5045150;28;20025;-43
2023/12/09 05:37:51;;;;;;;22.63;10.60;;;5.00;99.90;;;;;;5045977;28;20025;-43
2023/12/09 05:40:17;;;;;;;16.70;9.40;;;5.00;99.90;;;;;;5046690;28;20013;-44
2023/12/09 05:42:43;;;;;;;18.95;8.63;;;5.00;99.90;;;;;;5047261;28;20100;-43
2023/12/09 05:45:09;;;;;;;22.13;9.35;;;5.10;99.90;;;;;;5050634;28;20036;-43
2023/12/09 05:47:34;;;;;;;16.48;8.35;;;5.10;99.90;;;;;;5050448;28;20037;-44
2023/12/09 05:50:00;;;;;;;15.13;8.63;;;5.10;99.90;;;;;;5040758;28;20554;-43
2023/12/09 05:52:25;;;;;;;15.65;8.73;;;5.10;99.90;;;;;;5050702;28;20024;-43
2023/12/09 05:54:51;;;;;;;16.48;8.10;;;5.10;99.90;;;;;;5042614;28;20029;-43
2023/12/09 05:57:17;;;;;;;20.35;8.70;;;5.10;99.90;;;;;;5050129;28;20025;-44
2023/12/09 05:59:42;;;;;;;15.25;8.23;;;5.10;99.90;;;;;;5044003;28;20037;-44
2023/12/09 06:02:08;;;;;;;18.95;8.77;;;5.10;99.90;;;;;;5050224;28;20096;-44
2023/12/09 06:04:34;;;;;;;17.35;8.40;;;5.10;99.90;;;;;;5044989;28;20033;-43
2023/12/09 06:06:59;;;;;;;23.67;8.98;;;5.10;99.90;;;;;;5048176;28;20029;-45
2023/12/09 06:09:25;;;;;;;20.85;9.65;;;5.10;99.90;;;;;;5046357;28;20025;-46
2023/12/09 06:11:51;;;;;;;15.45;7.82;;;5.10;99.90;;;;;;5046738;28;20048;-44
2023/12/09 06:14:16;;;;;;;18.25;8.27;;;5.10;99.90;;;;;;5045361;28;20025;-44
2023/12/09 06:16:42;;;;;;;19.15;9.13;;;5.20;99.90;;;;;;5032087;28;20022;-46
2023/12/09 06:19:08;;;;;;;18.55;7.47;;;5.20;99.90;;;;;;5036337;28;20476;-46
2023/12/09 06:21:34;;;;;;;19.02;7.97;;;5.20;99.90;;;;;;5046351;28;20431;-44
2023/12/09 06:23:59;;;;;;;14.80;7.80;;;5.20;99.90;;;;;;5049877;28;20255;-46
2023/12/09 06:26:25;;;;;;;17.63;7.60;;;5.20;99.90;;;;;;5050693;28;20111;-46
2023/12/09 06:28:51;;;;;;;17.23;7.10;;;5.20;99.90;;;;;;5050137;28;20029;-47
2023/12/09 06:31:17;;;;;;;11.20;6.93;;;5.20;99.90;;;;;;5046047;28;20126;-44
2023/12/09 06:33:42;;;;;;;17.15;7.47;;;5.20;99.90;;;;;;5050621;28;20100;-44
2023/12/09 06:36:08;;;;;;;16.60;6.95;;;5.30;99.90;;;;;;5038635;28;20083;-47
2023/12/09 06:38:39;;;;;;;19.65;7.80;;;5.30;99.90;;;;;;5030830;28;20513;-48
2023/12/09 06:41:05;;;;;;;15.70;7.78;;;5.30;99.90;;;;;;5030649;28;20042;-46
2023/12/09 06:43:31;;;;;;;14.70;7.78;;;5.30;99.90;;;;;;5030611;28;20123;-45
2023/12/09 06:45:58;;;;;;;21.38;7.78;;;5.30;99.90;;;;;;5030030;28;20482;-46
2023/12/09 06:48:24;;;;;;;14.00;6.82;;;5.30;99.90;;;;;;5030116;28;20095;-45
2023/12/09 06:50:49;;;;;;;14.32;7.20;;;5.30;99.90;;;;;;5028620;28;20342;-46
2023/12/09 06:53:15;;;;;;;18.42;7.50;;;5.30;99.90;;;;;;5030492;28;20441;-48
2023/12/09 06:55:41;;;;;;;13.07;7.13;;;5.30;99.90;;;;;;5030105;28;20033;-46
2023/12/09 06:58:06;;;;;;;16.10;7.47;;;5.30;99.90;;;;;;5030661;28;20056;-44
2023/12/09 07:00:32;;;;;;;17.40;7.35;;;5.30;99.90;;;;;;5030059;28;20048;-45
2023/12/09 07:02:58;;;;;;;19.88;7.63;;;5.40;99.90;;;;;;5031189;28;20026;-45
2023/12/09 07:05:23;;;;;;;11.65;6.22;;;5.40;99.90;;;;;;5030098;28;20971;-46
2023/12/09 07:07:50;;;;;;;11.88;6.35;;;5.30;99.90;;;;;;5027717;28;20041;-46
2023/12/09 07:10:16;;;;;;;13.65;7.15;;;5.30;99.90;;;;;;5029842;28;20022;-44
2023/12/09 07:12:43;;;;;;;13.75;6.53;;;5.30;99.90;;;;;;5031432;28;20030;-44
2023/12/09 07:15:09;;;;;;;15.13;6.95;;;5.30;99.90;;;;;;5029781;28;20033;-44
2023/12/09 07:17:35;;;;;;;15.23;6.20;;;5.30;99.90;;;;;;5030032;28;20051;-47
2023/12/09 07:20:00;;;;;;;12.80;6.60;;;5.30;99.90;;;;;;5029643;28;20534;-44
2023/12/09 07:22:26;;;;;;;14.35;5.95;;;5.30;99.90;;;;;;5030906;28;20025;-46
2023/12/09 07:24:53;;;;;;;10.63;6.03;;;5.30;99.90;;;;;;5027388;28;20095;-45
2023/12/09 07:27:18;;;;;;;15.45;6.25;;;5.30;99.90;;;;;;5029335;28;20033;-46
2023/12/09 07:29:44;;;;;;;14.82;6.40;;;5.30;99.90;;;;;;5031044;28;20328;-46
2023/12/09 07:32:10;;;;;;;15.63;6.90;;;5.30;99.90;;;;;;5031262;28;20025;-49
2023/12/09 07:34:35;;;;;;;12.85;5.72;;;5.40;99.90;;;;;;5030851;28;20095;-45
2023/12/09 07:37:01;;;;;;;11.55;6.13;;;5.40;99.90;;;;;;5030906;28;20466;-45
2023/12/09 07:39:27;;;;;;;12.80;6.63;;;5.30;99.90;;;;;;5030357;28;20030;-44
2023/12/09 07:41:52;;;;;;;15.07;6.10;;;5.30;99.90;;;;;;5030246;28;20040;-44
2023/12/09 07:44:19;;;;;;;16.08;7.57;;;5.30;99.90;;;;;;5029134;28;20029;-47
2023/12/09 07:46:45;;;;;;;12.05;7.10;;;5.30;99.90;;;;;;5029578;28;20356;-48
2023/12/09 07:49:11;;;;;;;13.63;5.90;;;5.30;99.90;;;;;;5015759;28;20076;-46
2023/12/09 07:51:37;;;;;;;13.77;5.78;;;5.30;99.90;;;;;;5029610;28;20074;-47
2023/12/09 07:54:03;;;;;;;15.35;6.38;;;5.30;99.90;;;;;;5031288;28;20378;-46
2023/12/09 07:56:28;;;;;;;12.23;6.22;;;5.30;99.90;;;;;;5030216;28;20032;-44
2023/12/09 07:58:54;;;;;;;12.48;5.82;;;5.30;99.90;;;;;;5030737;28;20014;-45
2023/12/09 08:01:20;;;;;;;13.75;5.50;;;5.30;99.90;;;;;;5030451;28;20549;-44
2023/12/09 08:03:45;;;;;;;16.10;6.63;;;5.30;99.90;;;;;;5031440;28;20025;-44
2023/12/09 08:06:11;;;;;;;12.30;5.97;;;5.20;99.90;;;;;;5030376;28;20116;-43
2023/12/09 08:08:38;;;;;;;10.60;5.72;;;5.20;99.90;;;;;;5045840;28;20044;-45
2023/12/09 08:11:05;;;;;;;19.20;6.22;;;5.20;99.90;;;;;;5028446;28;20018;-44
2023/12/09 08:13:31;;;;;;;20.73;7.13;;;5.20;99.90;;;;;;5030139;28;20079;-46
2023/12/09 08:15:56;;;;;;;14.18;5.93;;;5.20;99.90;;;;;;5030449;28;20119;-45
2023/12/09 08:18:22;;;;;;;9.77;4.93;;;5.20;99.90;;;;;;5030657;28;20059;-48
2023/12/09 08:20:48;;;;;;;11.07;6.75;;;5.20;99.90;;;;;;5031696;28;20032;-45
2023/12/09 08:23:13;;;;;;;19.13;5.80;;;5.20;99.90;;;;;;5030968;28;20021;-46
2023/12/09 08:25:39;;;;;;;13.60;6.03;;;5.20;99.90;;;;;;5030908;28;20029;-45
2023/12/09 08:28:05;;;;;;;19.38;6.70;;;5.20;99.90;;;;;;5031687;28;20036;-45
2023/12/09 08:30:32;;;;;;;13.98;6.03;;;5.20;99.90;;;;;;5030882;28;20420;-46
2023/12/09 08:32:58;;;;;;;14.15;6.57;;;5.20;99.90;;;;;;5032424;28;20361;-48
2023/12/09 08:35:24;;;;;;;11.75;5.82;;;5.20;99.90;;;;;;5030943;28;20087;-46
2023/12/09 08:37:49;;;;;;;14.00;5.85;;;5.20;99.90;;;;;;5032140;28;20022;-48
2023/12/09 08:40:15;;;;;;;12.52;6.00;;;5.20;99.90;;;;;;5030970;28;20459;-47
2023/12/09 08:42:45;;;;;;;11.55;5.43;;;5.20;99.90;;;;;;5031105;28;20033;-49
2023/12/09 08:45:15;;;;;;;12.90;5.95;;;5.20;99.90;;;;;;5031422;28;20013;-45
2023/12/09 08:47:41;;;;;;;13.88;6.22;;;5.20;99.90;;;;;;5031543;28;20029;-49
2023/12/09 08:50:08;;;;;;;15.65;6.07;;;5.30;99.90;;;;;;5032034;28;20051;-46
2023/12/09 08:52:34;;;;;;;15.43;5.55;;;5.30;99.90;;;;;;5030983;28;20299;-47
2023/12/09 08:55:00;;;;;;;9.60;5.40;;;5.30;99.90;;;;;;5030882;28;20522;-46
2023/12/09 08:57:26;;;;;;;12.70;5.10;;;5.30;99.90;;;;;;5046347;28;20605;-46
2023/12/09 08:59:52;;;;;;;10.77;4.70;;;5.30;99.90;;;;;;5032412;28;20021;-49
2023/12/09 09:02:17;;;;;;;13.73;4.85;;;5.30;99.90;;;;;;5031019;28;20021;-45
2023/12/09 09:04:43;;;;;;;21.88;5.10;;;5.40;99.90;;;;;;5030496;28;20022;-48
2023/12/09 09:07:09;;;;;;;10.00;4.75;;;5.40;99.90;;;;;;5031862;28;20033;-48
2023/12/09 09:09:37;;;;;;;9.07;5.35;;;5.40;99.90;;;;;;5030521;28;20159;-45
2023/12/09 09:12:03;;;;;;;15.38;4.50;;;5.40;99.90;;;;;;5031040;28;20083;-48
2023/12/09 09:14:29;;;;;;;12.38;4.70;;;5.50;99.90;;;;;;5031004;28;20285;-47
2023/12/09 09:16:54;;;;;;;11.43;4.65;;;5.50;99.90;;;;;;5032813;28;20029;-49
2023/12/09 09:19:20;;;;;;;9.40;4.63;;;5.50;99.90;;;;;;5032661;28;20087;-47
2023/12/09 09:21:46;;;;;;;11.18;4.30;;;5.50;99.90;;;;;;5036216;28;20045;-48
2023/12/09 09:24:12;;;;;;;13.25;4.38;;;5.60;99.90;;;;;;5035612;28;20021;-47
2023/12/09 09:26:38;;;;;;;11.70;5.57;;;5.60;99.90;;;;;;5031694;28;20080;-45
2023/12/09 09:29:04;;;;;;;5.93;3.53;;;5.60;99.90;;;;;;5036325;28;20033;-48
2023/12/09 09:31:30;;;;;;;16.63;4.47;;;5.70;99.90;;;;;;5050135;28;20030;-48
2023/12/09 09:33:55;;;;;;;7.53;3.92;;;5.70;99.90;;;;;;5036851;28;20479;-46
2023/12/09 09:36:22;;;;;;;9.45;3.70;;;5.80;99.90;;;;;;5034935;28;20068;-46
2023/12/09 09:38:48;;;;;;;9.77;4.35;;;5.80;99.90;;;;;;5036072;28;20013;-45
2023/12/09 09:41:26;;;;;;;14.68;4.18;;;5.90;99.90;;;;;;5035300;28;20557;-48
2023/12/09 09:44:06;;;;;;;6.97;3.85;;;5.90;99.90;;;;;;5037414;28;20068;-46
2023/12/09 09:46:33;;;;;;;8.25;3.85;;;6.00;99.90;;;;;;5035174;28;20034;-45
2023/12/09 09:49:01;;;;;;;8.98;3.40;;;6.10;99.90;;;;;;5036955;28;20488;-50
2023/12/09 09:51:30;;;;;;;8.32;3.58;;;6.10;99.90;;;;;;5035204;28;20025;-45
2023/12/09 09:54:08;;;;;;;10.70;3.70;;;6.20;99.90;;;;;;5037135;28;20105;-46
2023/12/09 09:56:34;;;;;;;6.25;2.90;;;6.30;99.90;;;;;;5035584;28;20030;-50
2023/12/09 09:59:00;;;;;;;8.07;4.20;;;6.30;99.90;;;;;;5035681;28;20535;-47
2023/12/09 10:01:27;;;;;;;8.90;3.40;;;6.30;99.90;;;;;;5050643;28;20025;-46
2023/12/09 10:03:53;;;;;;;8.98;3.40;;;6.40;99.90;;;;;;5037026;28;20017;-48
2023/12/09 10:06:19;;;;;;;10.20;3.35;;;6.50;99.90;;;;;;5035483;28;20037;-48
2023/12/09 10:08:45;;;;;;;10.02;3.03;;;6.50;99.90;;;;;;5036083;28;20041;-47
2023/12/09 10:11:11;;;;;;;9.07;3.97;;;6.50;99.90;;;;;;5036191;28;20108;-48
2023/12/09 10:13:37;;;;;;;10.10;2.80;;;6.60;99.90;;;;;;5032394;28;20097;-50
2023/12/09 10:16:03;;;;;;;5.82;3.03;;;6.70;99.90;;;;;;5035410;28;20445;-46
2023/12/09 10:18:30;;;;;;;9.60;3.05;;;6.70;99.90;;;;;;5034816;28;20472;-47
2023/12/09 10:20:55;;;;;;;8.85;2.88;;;6.90;99.90;;;;;;5036761;28;20025;-45
2023/12/09 10:23:22;;;;;;;8.00;2.97;;;6.90;99.90;;;;;;5029709;28;20022;-47
2023/12/09 10:25:48;;;;;;;11.25;3.28;;;7.00;99.90;;;;;;5036679;28;20029;-48
2023/12/09 10:28:14;;;;;;;6.60;2.83;;;7.10;99.90;;;;;;5034843;28;20107;-48
2023/12/09 10:30:44;;;;;;;10.23;2.63;;;7.20;99.90;;;;;;5035214;28;20029;-49
2023/12/09 10:33:10;;;;;;;7.32;2.78;;;7.30;99.90;;;;;;5036832;28;20025;-46
2023/12/09 10:35:36;;;;;;;9.23;2.67;;;7.80;99.90;;;;;;5035457;28;20029;-46
2023/12/09 10:38:04;;;;;;;5.85;2.65;;;8.60;99.90;;;;;;5037854;28;20382;-50
2023/12/09 10:40:31;;;;;;;10.70;3.08;;;10.00;99.90;;;;;;5035368;28;20124;-49
2023/12/09 10:42:57;;;;;;;9.10;2.80;;;11.30;99.90;;;;;;5038283;28;20018;-46
2023/12/09 10:45:23;;;;;;;6.25;3.15;;;12.70;99.90;;;;;;5050829;28;20029;-46
2023/12/09 10:47:48;;;;;;;7.82;2.97;;;12.90;99.90;;;;;;5036443;28;20097;-49
2023/12/09 10:50:14;;;;;;;6.72;2.50;;;13.80;99.90;;;;;;5036273;28;20437;-49
2023/12/09 10:52:40;;;;;;;6.22;2.60;;;14.00;99.90;;;;;;5050922;28;20061;-50
2023/12/09 10:55:06;;;;;;;5.30;2.45;;;15.40;98.70;;;;;;5038005;28;20502;-49
2023/12/09 10:57:33;;;;;;;4.22;1.95;;;15.30;95.40;;;;;;5035424;28;20029;-46
2023/12/09 11:00:01;;;;;;;6.40;2.55;;;14.50;96.00;;;;;;5037351;28;20108;-45
2023/12/09 11:02:28;;;;;;;5.88;2.38;;;13.30;97.50;;;;;;5035356;28;20032;-47
2023/12/09 11:04:54;;;;;;;4.90;2.70;;;12.60;98.90;;;;;;5037653;28;20029;-54
2023/12/09 11:07:20;;;;;;;6.53;2.60;;;11.80;99.90;;;;;;5036161;28;20037;-44
2023/12/09 11:09:47;;;;;;;7.32;2.90;;;10.80;99.90;;;;;;5035111;28;20033;-44
2023/12/09 11:12:28;;;;;;;7.13;3.05;;;10.30;99.90;;;;;;5035478;28;20025;-47
2023/12/09 11:14:53;;;;;;;5.45;2.60;;;9.90;99.90;;;;;;5037329;28;20055;-45
2023/12/09 11:17:33;;;;;;;11.30;2.78;;;9.70;99.90;;;;;;5034385;28;20100;-45
2023/12/09 11:20:06;;;;;;;4.20;2.40;;;9.70;99.90;;;;;;5037380;28;20106;-46
2023/12/09 11:22:36;;;;;;;5.15;2.33;;;9.90;99.90;;;;;;5035662;28;20523;-46
2023/12/09 11:25:04;;;;;;;9.32;3.67;;;9.50;99.90;;;;;;5038238;28;20074;-48
2023/12/09 11:27:32;;;;;;;6.85;2.97;;;9.50;99.90;;;;;;5035961;28;20382;-45
2023/12/09 11:29:58;;;;;;;6.97;2.65;;;9.40;99.90;;;;;;5037895;28;20062;-47
2023/12/09 11:32:24;;;;;;;11.07;3.25;;;9.40;99.90;;;;;;5035741;28;20049;-46
2023/12/09 11:34:50;;;;;;;8.55;3.08;;;9.40;99.90;;;;;;5036798;28;20021;-47
2023/12/09 11:37:17;;;;;;;4.63;2.50;;;9.10;99.90;;;;;;5036908;28;20262;-48
2023/12/09 11:39:43;;;;;;;6.15;2.70;;;9.10;99.90;;;;;;5035804;28;20025;-47
2023/12/09 11:42:10;;;;;;;8.50;3.25;;;8.90;99.90;;;;;;5037477;28;20025;-48
2023/12/09 11:44:37;;;;;;;6.07;2.75;;;8.80;99.90;;;;;;5033584;28;20156;-46
2023/12/09 11:47:04;;;;;;;6.50;2.42;;;8.40;99.90;;;;;;5029317;28;20084;-46
2023/12/09 11:49:30;;;;;;;5.78;2.40;;;8.40;99.90;;;;;;5030530;28;20079;-46
2023/12/09 11:51:56;;;;;;;9.57;2.83;;;8.30;99.90;;;;;;5031380;28;20025;-46
2023/12/09 11:54:22;;;;;;;7.78;2.67;;;8.20;99.90;;;;;;5029217;28;20497;-46
2023/12/09 11:56:48;;;;;;;7.47;3.00;;;8.20;99.90;;;;;;5036931;28;20021;-45
2023/12/09 11:59:14;;;;;;;6.65;2.65;;;8.10;99.90;;;;;;5035413;28;20025;-46
2023/12/09 12:01:40;;;;;;;3.60;2.08;;;8.00;99.90;;;;;;5034570;28;20048;-49
2023/12/09 12:04:06;;;;;;;6.18;2.53;;;8.00;99.90;;;;;;5035065;28;20488;-45
2023/12/09 12:06:35;;;;;;;6.20;2.53;;;8.00;99.90;;;;;;5034342;28;20112;-47
2023/12/09 12:09:03;;;;;;;8.30;2.67;;;8.10;99.90;;;;;;5032875;28;20028;-48
2023/12/09 12:11:28;;;;;;;5.13;2.55;;;8.00;99.90;;;;;;5033972;28;20497;-45
2023/12/09 12:13:54;;;;;;;5.95;2.45;;;8.00;99.90;;;;;;5035152;28;20034;-44
2023/12/09 12:16:20;;;;;;;5.40;2.40;;;7.90;99.90;;;;;;5033377;28;20013;-46
2023/12/09 12:18:47;;;;;;;7.03;2.35;;;7.90;99.90;;;;;;5034278;28;20029;-48
2023/12/09 12:21:12;;;;;;;5.13;2.38;;;8.00;99.90;;;;;;5037499;28;20013;-48
2023/12/09 12:23:39;;;;;;;5.88;2.40;;;8.00;99.90;;;;;;5031508;28;20497;-48
2023/12/09 12:26:05;;;;;;;4.78;2.38;;;7.90;99.90;;;;;;5034306;28;20029;-48
2023/12/09 12:28:31;;;;;;;6.00;2.20;;;8.00;99.90;;;;;;5037305;28;20568;-49
2023/12/09 12:30:59;;;;;;;4.47;1.98;;;8.10;99.90;;;;;;5039103;28;20029;-44
2023/12/09 12:33:26;;;;;;;5.18;2.00;;;8.30;99.90;;;;;;5034197;28;20029;-46
2023/12/09 12:35:53;;;;;;;3.05;1.63;;;8.30;99.90;;;;;;5038905;28;20037;-45
2023/12/09 12:38:22;;;;;;;5.80;2.05;;;8.30;99.90;;;;;;5038714;28;20405;-48
2023/12/09 12:40:47;;;;;;;8.45;2.35;;;8.30;99.90;;;;;;5038324;28;20049;-46